PDT,Max TemperatureF,Mean TemperatureF,Min TemperatureF,Max Dew PointF,MeanDew PointF,Min DewpointF,Max Humidity, Mean Humidity, Min Humidity, Max Sea Level PressureIn, Mean Sea Level PressureIn, Min Sea Level PressureIn, Max VisibilityMiles, Mean VisibilityMiles, Min VisibilityMiles, Max Wind SpeedMPH, Mean Wind SpeedMPH, Max Gust SpeedMPH,PrecipitationIn, CloudCover, Events, WindDirDegrees
2013-6-1,73,64,55,47,45,42,69,54,36,30.25,30.15,30.06,10,10,10,8,3,,0.00,5,,295
2013-6-2,70,62,55,50,47,43,77,57,42,30.10,30.08,30.05,10,10,10,10,4,16,0.00,5,Rain,299
2013-6-3,73,63,53,51,49,47,83,67,44,30.14,30.10,30.06,10,10,10,8,4,,0.00,3,,216
2013-6-4,78,66,55,51,48,43,77,53,30,30.14,30.09,30.02,10,10,10,10,3,,0.00,0,,314
2013-6-5,78,68,59,53,50,45,63,52,37,30.10,30.06,30.03,10,10,10,9,2,,0.00,3,,318
2013-6-6,80,68,57,51,47,42,77,50,29,30.07,30.04,30.01,10,10,10,7,2,,0.00,2,,326
2013-6-7,69,62,57,53,48,42,70,57,43,30.16,30.09,30.04,10,10,10,12,5,,0.00,6,,192
2013-6-8,69,62,55,49,46,45,67,58,47,30.19,30.16,30.11,10,10,10,8,3,,0.00,6,,351
2013-6-9,68,62,55,47,45,42,72,59,43,30.13,30.09,30.03,10,10,10,8,3,,0.00,6,,358
2013-6-10,70,62,53,47,44,41,66,54,35,30.05,29.97,29.89,10,10,10,7,4,,0.00,4,,304
2013-6-11,68,60,52,45,44,41,72,57,42,30.12,30.03,29.96,10,10,10,15,9,23,0.00,5,Rain,183
2013-6-12,69,62,55,48,45,41,72,58,37,30.16,30.13,30.12,10,10,10,12,8,18,0.00,6,,190
2013-6-13,70,62,55,48,46,42,77,62,39,30.23,30.18,30.15,10,10,10,7,3,,0.00,6,,247
2013-6-14,68,60,55,47,46,45,69,60,47,30.25,30.20,30.06,10,10,10,12,8,20,0.00,6,,174
2013-6-15,75,64,55,50,48,46,77,57,37,30.05,29.97,29.93,10,10,10,9,4,17,0.00,1,,310
2013-6-16,75,66,57,54,51,47,82,60,44,30.10,30.06,30.00,10,10,10,9,4,,0.00,4,,197
2013-6-17,78,68,59,53,49,43,75,57,30,30.10,30.02,29.90,10,10,10,14,6,22,0.00,5,,189
2013-6-18,75,65,57,52,47,39,81,57,29,29.99,29.96,29.88,10,10,10,10,7,20,0.00,4,,181
2013-6-19,69,60,55,53,49,45,77,64,47,30.02,29.96,29.94,10,10,9,9,5,,0.00,7,Rain,179
2013-6-20,64,60,55,52,50,47,88,73,58,30.12,30.03,29.97,10,9,4,13,7,17,0.00,8,Rain,181
2013-6-21,71,62,55,52,50,45,88,68,42,30.17,30.14,30.12,10,10,5,8,4,,0.01,6,Rain,128
2013-6-22,79,66,55,53,51,47,84,57,36,30.13,30.00,29.86,10,10,10,6,1,,0.00,1,,301
2013-6-23,72,67,62,61,55,49,94,69,56,29.85,29.73,29.61,10,10,4,8,3,,0.00,7,Rain,310
2013-6-24,71,64,59,59,54,50,90,72,51,29.71,29.65,29.59,10,9,2,14,7,20,0.01,7,Rain,174
2013-6-25,75,66,59,58,55,49,87,72,41,29.87,29.74,29.69,10,9,2,18,5,30,0.01,7,Rain-Thunderstorm,162
2013-6-26,73,66,60,60,56,53,87,71,53,30.08,29.96,29.86,10,10,6,9,4,21,0.56,6,Rain,199
2013-6-27,72,68,63,61,59,53,87,75,63,30.20,30.14,30.05,10,10,8,5,0,,0.13,7,Rain,148
2013-6-28,88,74,62,61,59,56,84,62,36,30.19,30.11,30.04,10,10,10,10,3,,0.00,3,,313
2013-6-29,87,76,66,59,58,55,76,56,40,30.11,30.06,29.99,10,10,10,8,1,,0.00,3,,291
2013-6-30,91,78,64,61,58,53,70,52,28,30.02,29.94,29.85,10,10,10,8,3,,0.00,0,,315